Overview Statistics Trail Chart Weather Telemetry Raw packets
 

This is the latest recevied weather packets stored in our database for station/object ZL1CTS-13. If no packets are shown the sender has not sent any weather packets the latest 10 day(s).

<< 102 103 104 105 106 107 108 >>
Time Temp. Humidity Pressure Rain* Wind** Luminosity Snow
1788066303 14.44° C 93% 995.3 hPa 0.25 mm - - -
1788066006 15° C 93% 995.4 hPa 0.25 mm - - -
1788065704 15.56° C 93% 995.4 hPa 0.25 mm - - -
1788065407 15.56° C 94% 995.5 hPa 0.25 mm - - -
1788065104 15.56° C 95% 995.5 hPa 0.25 mm - - -
1788064804 15° C 96% 995.4 hPa 0.25 mm - - -
1788064504 14.44° C 97% 995.5 hPa 0.25 mm - - -
1788064218 14.44° C 97% 995.5 hPa 0.25 mm - - -
1788063904 14.44° C 97% 995.5 hPa 0.25 mm - - -
1788063607 14.44° C 96% 995.5 hPa 0.25 mm - - -
1788063304 13.89° C 96% 995.4 hPa 0.25 mm - - -
1788063005 13.33° C 95% 995.4 hPa 0.25 mm - - -
1788062704 13.33° C 94% 995.6 hPa 0 mm - - -
1788062404 13.89° C 92% 995.6 hPa 0 mm - - -
1788062104 14.44° C 89% 995.5 hPa 0 mm - - -
1788061803 15° C 84% 995.3 hPa 0 mm - - -
1788061504 16.11° C 80% 995.4 hPa 0 mm - - -
1788061204 16.67° C 77% 995.1 hPa 0 mm - - -
1788060904 17.78° C 74% 995.1 hPa 0 mm - - -
1788060604 17.78° C 75% 995.1 hPa 0 mm - - -
1788060304 17.78° C 78% 995.1 hPa 0 mm - - -
1788060004 17.22° C 80% 995.3 hPa 0 mm - - -
1788059704 17.22° C 79% 995.3 hPa 0 mm - - -
1788059404 17.78° C 80% 995.3 hPa 0 mm - - -
1788059104 17.22° C 82% 995.2 hPa 0 mm - - -

* Rain latest hour (hover to see other rain measurements)
** Current wind speed in m/s (hover to see current wind gust speed)